Time;durP1;ratioP1;P1;durP2;ratioP2;P2;SDS_P1;SDS_P2;PMS_P1;PMS_P2;Temp;Humidity;BMP_temperature;BMP_pressure;BME280_temperature;BME280_humidity;BME280_pressure;Samples;Min_cycle;Max_cycle;Signal;HPM_P1;HPM_P2
2023/07/19 00:01:22;;;;;;;22.27;9.32;;;;;;;;;;4973616;28;20049;-61
2023/07/19 00:03:48;;;;;;;21.83;9.45;;;;;;;;;;4973403;28;20503;-61
2023/07/19 00:06:14;;;;;;;20.65;8.85;;;;;;;;;;4973612;28;20039;-61
2023/07/19 00:08:40;;;;;;;23.45;9.35;;;;;;;;;;4977504;28;20054;-61
2023/07/19 00:11:06;;;;;;;22.40;8.52;;;;;;;;;;4975973;28;20034;-61
2023/07/19 00:13:32;;;;;;;20.35;9.45;;;;;;;;;;4976868;28;20676;-61
2023/07/19 00:15:59;;;;;;;20.45;9.10;;;;;;;;;;4978233;28;20042;-60
2023/07/19 00:18:25;;;;;;;19.60;8.93;;;;;;;;;;4977345;28;20027;-61
2023/07/19 00:20:51;;;;;;;19.42;9.07;;;;;;;;;;4970874;28;20055;-61
2023/07/19 00:23:17;;;;;;;18.40;8.40;;;;;;;;;;4964706;28;20055;-61
2023/07/19 00:25:45;;;;;;;17.67;8.57;;;;;;;;;;4968625;28;20508;-62
2023/07/19 00:28:11;;;;;;;22.45;9.20;;;;;;;;;;4977027;28;20062;-59
2023/07/19 00:30:38;;;;;;;16.85;8.27;;;;;;;;;;4976761;28;20406;-59
2023/07/19 00:33:04;;;;;;;20.88;8.82;;;;;;;;;;4970978;28;20533;-60
2023/07/19 00:35:30;;;;;;;19.58;8.20;;;;;;;;;;4969309;28;20506;-59
2023/07/19 00:37:57;;;;;;;18.92;8.27;;;;;;;;;;4976555;28;20042;-61
2023/07/19 00:40:23;;;;;;;22.48;8.88;;;;;;;;;;4972334;28;20034;-60
2023/07/19 00:42:55;;;;;;;16.92;8.27;;;;;;;;;;4974843;28;20112;-61
2023/07/19 00:45:23;;;;;;;19.52;8.35;;;;;;;;;;4975162;28;20053;-61
2023/07/19 00:47:49;;;;;;;20.65;8.50;;;;;;;;;;4980270;28;20055;-61
2023/07/19 00:50:15;;;;;;;24.75;9.13;;;;;;;;;;4974537;28;20039;-60
2023/07/19 00:52:42;;;;;;;20.02;8.50;;;;;;;;;;4973567;28;20037;-60
2023/07/19 00:55:09;;;;;;;16.27;7.60;;;;;;;;;;4974149;28;20055;-60
2023/07/19 00:57:35;;;;;;;15.57;8.05;;;;;;;;;;4972564;28;20069;-59
2023/07/19 01:00:01;;;;;;;23.83;9.10;;;;;;;;;;4974531;28;20049;-60
2023/07/19 01:02:28;;;;;;;24.10;9.32;;;;;;;;;;4970323;28;20405;-59
2023/07/19 01:04:54;;;;;;;18.20;9.15;;;;;;;;;;4974385;28;20030;-61
2023/07/19 01:07:20;;;;;;;23.88;9.98;;;;;;;;;;4970898;28;20510;-59
2023/07/19 01:09:48;;;;;;;15.82;8.70;;;;;;;;;;4970176;28;20046;-60
2023/07/19 01:12:15;;;;;;;18.20;8.98;;;;;;;;;;4969126;28;20058;-60
2023/07/19 01:14:41;;;;;;;24.42;8.35;;;;;;;;;;4973584;28;20042;-60
2023/07/19 01:17:07;;;;;;;15.13;7.57;;;;;;;;;;4971309;28;20035;-60
2023/07/19 01:19:33;;;;;;;17.55;7.32;;;;;;;;;;4971836;28;20152;-60
2023/07/19 01:21:59;;;;;;;20.67;7.80;;;;;;;;;;4973703;28;20039;-60
2023/07/19 01:24:26;;;;;;;19.63;8.65;;;;;;;;;;4967856;28;20058;-59
2023/07/19 01:26:52;;;;;;;19.75;7.75;;;;;;;;;;4968815;28;20050;-60
2023/07/19 01:29:18;;;;;;;18.92;8.32;;;;;;;;;;4967221;28;20042;-60
2023/07/19 01:31:44;;;;;;;16.77;7.85;;;;;;;;;;4973771;28;20376;-60
2023/07/19 01:34:10;;;;;;;21.33;7.90;;;;;;;;;;4969351;28;20039;-61
2023/07/19 01:36:36;;;;;;;22.20;7.70;;;;;;;;;;4971655;28;20038;-61
2023/07/19 01:39:02;;;;;;;17.02;9.13;;;;;;;;;;4977679;28;20042;-61
2023/07/19 01:41:30;;;;;;;19.38;7.97;;;;;;;;;;4967999;28;20419;-61
2023/07/19 01:43:56;;;;;;;22.02;8.10;;;;;;;;;;4975684;28;20070;-61
2023/07/19 01:46:22;;;;;;;19.75;8.05;;;;;;;;;;4970209;28;20038;-61
2023/07/19 01:48:49;;;;;;;24.67;8.18;;;;;;;;;;4971952;28;20054;-61
2023/07/19 01:51:15;;;;;;;17.45;8.00;;;;;;;;;;4971563;28;20027;-61
2023/07/19 01:53:41;;;;;;;16.85;7.60;;;;;;;;;;4969022;28;20586;-61
2023/07/19 01:56:08;;;;;;;19.15;7.68;;;;;;;;;;4971591;28;20043;-61
2023/07/19 01:58:35;;;;;;;18.25;7.93;;;;;;;;;;4975984;28;20039;-61
2023/07/19 02:01:01;;;;;;;19.17;7.55;;;;;;;;;;4972406;28;20384;-61
2023/07/19 02:03:27;;;;;;;20.10;7.28;;;;;;;;;;4966858;28;20050;-61
2023/07/19 02:06:00;;;;;;;17.35;7.47;;;;;;;;;;4974183;28;20046;-61
2023/07/19 02:08:26;;;;;;;24.40;8.05;;;;;;;;;;4972134;28;20384;-61
2023/07/19 02:10:54;;;;;;;17.38;8.32;;;;;;;;;;4972798;28;20586;-60
2023/07/19 02:13:20;;;;;;;17.15;8.00;;;;;;;;;;4971133;28;20026;-60
2023/07/19 02:15:47;;;;;;;19.38;7.93;;;;;;;;;;4974918;28;20050;-60
2023/07/19 02:18:13;;;;;;;20.92;8.68;;;;;;;;;;4970513;28;20042;-60
2023/07/19 02:20:47;;;;;;;20.30;9.30;;;;;;;;;;4972961;28;20071;-61
2023/07/19 02:23:15;;;;;;;20.52;8.40;;;;;;;;;;4969743;28;20043;-60
2023/07/19 02:25:41;;;;;;;24.10;9.00;;;;;;;;;;4974164;28;20418;-61
2023/07/19 02:28:09;;;;;;;19.75;8.65;;;;;;;;;;4973323;28;20422;-60
2023/07/19 02:30:41;;;;;;;18.10;8.80;;;;;;;;;;4972579;28;20639;-60
2023/07/19 02:33:07;;;;;;;18.83;8.70;;;;;;;;;;4971265;28;20031;-61
2023/07/19 02:35:33;;;;;;;23.15;9.85;;;;;;;;;;4967407;28;20050;-61
2023/07/19 02:37:59;;;;;;;23.83;9.70;;;;;;;;;;4971527;28;20406;-61
2023/07/19 02:40:25;;;;;;;18.00;9.40;;;;;;;;;;4966834;28;20421;-60
2023/07/19 02:42:52;;;;;;;24.05;9.35;;;;;;;;;;4968036;28;20034;-61
2023/07/19 02:45:18;;;;;;;22.35;9.70;;;;;;;;;;4966722;28;20055;-60
2023/07/19 02:47:44;;;;;;;19.00;8.80;;;;;;;;;;4973991;28;20608;-60
2023/07/19 02:50:10;;;;;;;18.15;8.88;;;;;;;;;;4967693;28;20034;-61
2023/07/19 02:52:37;;;;;;;21.10;7.88;;;;;;;;;;4969542;28;20050;-61
2023/07/19 02:55:03;;;;;;;23.38;9.00;;;;;;;;;;4973769;28;20031;-61
2023/07/19 02:57:29;;;;;;;21.65;9.48;;;;;;;;;;4966493;28;20047;-60
2023/07/19 02:59:55;;;;;;;20.95;8.95;;;;;;;;;;4968996;28;20043;-60
2023/07/19 03:02:21;;;;;;;21.92;9.75;;;;;;;;;;4966205;28;20039;-60
2023/07/19 03:04:48;;;;;;;19.27;9.02;;;;;;;;;;4969227;28;20038;-60
2023/07/19 03:07:14;;;;;;;19.48;8.98;;;;;;;;;;4969036;28;20051;-61
2023/07/19 03:09:40;;;;;;;19.95;9.35;;;;;;;;;;4968973;28;20411;-60
2023/07/19 03:12:07;;;;;;;20.20;9.30;;;;;;;;;;4968026;28;20062;-60
2023/07/19 03:14:33;;;;;;;32.17;10.68;;;;;;;;;;4968943;28;20043;-60
2023/07/19 03:16:59;;;;;;;20.35;8.98;;;;;;;;;;4966589;28;20047;-60
2023/07/19 03:19:26;;;;;;;19.75;9.32;;;;;;;;;;4966674;28;20045;-60
2023/07/19 03:21:52;;;;;;;17.75;8.57;;;;;;;;;;4967764;28;20030;-60
2023/07/19 03:24:18;;;;;;;16.05;8.80;;;;;;;;;;4967480;28;20050;-60
2023/07/19 03:26:45;;;;;;;27.02;9.13;;;;;;;;;;4967355;28;20517;-60
2023/07/19 03:29:11;;;;;;;23.17;9.75;;;;;;;;;;4970677;28;20038;-59
2023/07/19 03:31:37;;;;;;;16.08;8.48;;;;;;;;;;4968723;28;20417;-60
2023/07/19 03:34:03;;;;;;;18.23;8.68;;;;;;;;;;4968678;28;20395;-60
2023/07/19 03:36:29;;;;;;;25.23;9.65;;;;;;;;;;4971136;28;20045;-60
2023/07/19 03:38:55;;;;;;;22.08;9.10;;;;;;;;;;4970561;28;20039;-59
2023/07/19 03:41:23;;;;;;;21.10;9.57;;;;;;;;;;4964757;28;20418;-59
2023/07/19 03:43:49;;;;;;;26.50;10.13;;;;;;;;;;4967177;28;20061;-59
2023/07/19 03:46:15;;;;;;;23.45;9.93;;;;;;;;;;4966704;28;20042;-60
2023/07/19 03:48:42;;;;;;;20.48;9.07;;;;;;;;;;4965249;28;20435;-60
2023/07/19 03:51:08;;;;;;;20.65;9.35;;;;;;;;;;4969398;28;20041;-59
2023/07/19 03:53:34;;;;;;;23.50;9.65;;;;;;;;;;4966365;28;20051;-59
2023/07/19 03:56:00;;;;;;;21.92;8.90;;;;;;;;;;4972499;28;20062;-60
2023/07/19 03:58:28;;;;;;;22.25;9.68;;;;;;;;;;4967649;28;20031;-59
2023/07/19 04:00:57;;;;;;;21.17;8.27;;;;;;;;;;4950088;28;20049;-60
2023/07/19 04:03:24;;;;;;;21.03;9.63;;;;;;;;;;4964770;28;20055;-60
2023/07/19 04:05:51;;;;;;;20.25;9.13;;;;;;;;;;4970115;28;20057;-59
2023/07/19 04:08:18;;;;;;;18.00;9.13;;;;;;;;;;4974440;28;20489;-59
2023/07/19 04:10:44;;;;;;;18.42;8.60;;;;;;;;;;4953521;28;20042;-60
2023/07/19 04:13:11;;;;;;;20.75;8.57;;;;;;;;;;4973132;28;20054;-61
2023/07/19 04:15:39;;;;;;;19.23;8.93;;;;;;;;;;4969738;28;20054;-61
2023/07/19 04:18:05;;;;;;;23.05;9.65;;;;;;;;;;4966685;28;20506;-61
2023/07/19 04:20:32;;;;;;;18.85;8.70;;;;;;;;;;4965471;28;20042;-60
2023/07/19 04:22:58;;;;;;;22.52;10.30;;;;;;;;;;4952401;28;20402;-60
2023/07/19 04:25:24;;;;;;;23.50;9.88;;;;;;;;;;4951342;28;20043;-60
2023/07/19 04:27:51;;;;;;;20.10;9.50;;;;;;;;;;4967789;28;20063;-61
2023/07/19 04:30:18;;;;;;;28.65;11.18;;;;;;;;;;4964953;28;20039;-60
2023/07/19 04:32:45;;;;;;;24.95;9.43;;;;;;;;;;4968166;28;20041;-60
2023/07/19 04:35:11;;;;;;;26.23;10.07;;;;;;;;;;4968200;28;20031;-59
2023/07/19 04:37:38;;;;;;;21.67;9.70;;;;;;;;;;4968345;28;20065;-60
2023/07/19 04:40:11;;;;;;;27.80;10.25;;;;;;;;;;4968616;28;20050;-60
2023/07/19 04:42:39;;;;;;;22.35;8.95;;;;;;;;;;4968828;28;20043;-59
2023/07/19 04:45:06;;;;;;;22.63;9.70;;;;;;;;;;4972312;28;20414;-59
2023/07/19 04:47:36;;;;;;;26.25;9.82;;;;;;;;;;4968192;28;20051;-60
2023/07/19 04:50:07;;;;;;;20.92;9.68;;;;;;;;;;4966656;28;20038;-60
2023/07/19 04:52:35;;;;;;;21.58;8.93;;;;;;;;;;4969825;28;20046;-60
2023/07/19 04:55:02;;;;;;;18.38;9.07;;;;;;;;;;4971634;28;20031;-60
2023/07/19 04:57:28;;;;;;;27.15;10.57;;;;;;;;;;4968616;28;20046;-60
2023/07/19 04:59:54;;;;;;;21.58;9.32;;;;;;;;;;4970615;28;20034;-61
2023/07/19 05:02:20;;;;;;;21.52;9.30;;;;;;;;;;4951694;28;20047;-60
2023/07/19 05:04:46;;;;;;;24.58;10.15;;;;;;;;;;4969453;28;20541;-60
2023/07/19 05:07:14;;;;;;;22.10;9.50;;;;;;;;;;4969288;28;20062;-60
2023/07/19 05:09:44;;;;;;;18.95;8.65;;;;;;;;;;4969823;28;20050;-60
2023/07/19 05:12:10;;;;;;;21.42;9.50;;;;;;;;;;4953457;28;20054;-59
2023/07/19 05:14:36;;;;;;;17.88;9.15;;;;;;;;;;4966302;28;20062;-60
2023/07/19 05:17:03;;;;;;;21.17;8.10;;;;;;;;;;4968108;28;20442;-60
2023/07/19 05:19:29;;;;;;;18.42;8.27;;;;;;;;;;4968728;28;20037;-59
2023/07/19 05:21:56;;;;;;;23.33;9.93;;;;;;;;;;4969912;28;20061;-60
2023/07/19 05:24:22;;;;;;;24.23;8.85;;;;;;;;;;4968403;28;20042;-60
2023/07/19 05:26:48;;;;;;;21.52;8.68;;;;;;;;;;4968670;28;20043;-60
2023/07/19 05:29:14;;;;;;;18.23;8.57;;;;;;;;;;4969058;28;20061;-59
2023/07/19 05:31:40;;;;;;;25.73;9.25;;;;;;;;;;4972105;28;20414;-60
2023/07/19 05:34:08;;;;;;;19.75;8.05;;;;;;;;;;4974403;28;20026;-60
2023/07/19 05:36:34;;;;;;;19.23;8.52;;;;;;;;;;4968186;28;20051;-60
2023/07/19 05:39:01;;;;;;;21.65;8.38;;;;;;;;;;4971234;28;20050;-60
2023/07/19 05:41:27;;;;;;;17.88;8.63;;;;;;;;;;4951702;28;20053;-60
2023/07/19 05:43:54;;;;;;;19.27;8.38;;;;;;;;;;4952909;28;20096;-60
2023/07/19 05:46:20;;;;;;;19.42;8.00;;;;;;;;;;4964248;28;20042;-60
2023/07/19 05:48:47;;;;;;;20.63;8.43;;;;;;;;;;4969062;28;20058;-60
2023/07/19 05:51:13;;;;;;;25.80;9.13;;;;;;;;;;4969988;28;20042;-60
2023/07/19 05:53:39;;;;;;;23.35;8.93;;;;;;;;;;4962860;28;20051;-60
2023/07/19 05:56:05;;;;;;;21.30;8.45;;;;;;;;;;4971681;28;20413;-60
2023/07/19 05:58:31;;;;;;;23.67;8.75;;;;;;;;;;4969927;28;20037;-60
2023/07/19 06:00:57;;;;;;;19.10;7.47;;;;;;;;;;4970083;28;20050;-60
2023/07/19 06:03:23;;;;;;;17.42;8.27;;;;;;;;;;4968188;28;20050;-59
2023/07/19 06:05:50;;;;;;;17.73;8.35;;;;;;;;;;4972567;28;20058;-59
2023/07/19 06:08:16;;;;;;;19.50;7.80;;;;;;;;;;4970534;28;20046;-59
2023/07/19 06:10:42;;;;;;;15.40;7.68;;;;;;;;;;4970831;28;20061;-59
2023/07/19 06:13:08;;;;;;;20.02;8.43;;;;;;;;;;4973109;28;20502;-59
2023/07/19 06:15:34;;;;;;;20.77;9.88;;;;;;;;;;4970092;28;20046;-59
2023/07/19 06:18:01;;;;;;;19.23;8.57;;;;;;;;;;4971294;28;20055;-59
2023/07/19 06:20:27;;;;;;;30.65;9.73;;;;;;;;;;4969706;28;20051;-60
2023/07/19 06:22:53;;;;;;;15.88;7.65;;;;;;;;;;4970019;28;20043;-59
2023/07/19 06:25:19;;;;;;;15.90;8.25;;;;;;;;;;4968031;28;20038;-60
2023/07/19 06:27:46;;;;;;;19.83;7.90;;;;;;;;;;4965702;28;20051;-59
2023/07/19 06:30:12;;;;;;;16.08;7.40;;;;;;;;;;4970888;28;20039;-60
2023/07/19 06:32:38;;;;;;;24.10;8.88;;;;;;;;;;4968600;28;20678;-60
2023/07/19 06:35:05;;;;;;;22.02;8.70;;;;;;;;;;4966383;28;20035;-58
2023/07/19 06:37:34;;;;;;;20.58;9.05;;;;;;;;;;4971153;28;20039;-59
2023/07/19 06:40:03;;;;;;;;;;;;;;;;;;4968225;28;20062;-59
2023/07/19 06:42:34;;;;;;;21.73;9.82;;;;;;;;;;4966077;28;19914;-59
2023/07/19 06:45:02;;;;;;;19.63;9.18;;;;;;;;;;4969522;28;20079;-59
2023/07/19 06:47:29;;;;;;;19.90;9.10;;;;;;;;;;4968207;28;20035;-59
2023/07/19 06:49:56;;;;;;;17.88;8.88;;;;;;;;;;4970313;28;20042;-58
2023/07/19 06:52:23;;;;;;;21.08;8.85;;;;;;;;;;4966610;28;20038;-60
2023/07/19 06:54:49;;;;;;;17.95;8.13;;;;;;;;;;4968406;28;20532;-59
2023/07/19 06:57:16;;;;;;;19.75;8.30;;;;;;;;;;4966221;28;20027;-60
2023/07/19 06:59:42;;;;;;;19.25;8.90;;;;;;;;;;4969280;28;20062;-60
2023/07/19 07:02:08;;;;;;;17.80;8.93;;;;;;;;;;4968393;28;20042;-60
2023/07/19 07:04:34;;;;;;;17.52;8.15;;;;;;;;;;4967088;28;20043;-60
2023/07/19 07:07:00;;;;;;;18.23;8.50;;;;;;;;;;4967136;28;20054;-59
2023/07/19 07:09:27;;;;;;;17.33;8.43;;;;;;;;;;4966351;28;20434;-60
2023/07/19 07:11:53;;;;;;;16.35;8.18;;;;;;;;;;4967529;28;20051;-60
2023/07/19 07:14:19;;;;;;;19.88;8.55;;;;;;;;;;4967637;28;20051;-60
2023/07/19 07:16:45;;;;;;;15.40;8.02;;;;;;;;;;4953176;28;20065;-60
2023/07/19 07:19:11;;;;;;;20.15;8.07;;;;;;;;;;4969562;28;20046;-60
2023/07/19 07:21:37;;;;;;;16.17;7.97;;;;;;;;;;4968218;28;20054;-60
2023/07/19 07:24:04;;;;;;;18.15;7.65;;;;;;;;;;4971699;28;20035;-60
2023/07/19 07:26:30;;;;;;;17.70;8.35;;;;;;;;;;4966993;28;20413;-60
2023/07/19 07:28:57;;;;;;;20.08;8.38;;;;;;;;;;4968261;28;20103;-60
2023/07/19 07:31:23;;;;;;;17.83;8.35;;;;;;;;;;4967378;28;20056;-60
2023/07/19 07:33:49;;;;;;;14.93;7.75;;;;;;;;;;4968064;28;20043;-60
2023/07/19 07:36:15;;;;;;;15.93;7.78;;;;;;;;;;4966834;28;20031;-60
2023/07/19 07:38:42;;;;;;;18.88;7.43;;;;;;;;;;4972391;28;20051;-59
2023/07/19 07:41:12;;;;;;;21.42;7.90;;;;;;;;;;4972414;28;20534;-60
2023/07/19 07:43:38;;;;;;;16.08;7.07;;;;;;;;;;4963778;28;20066;-60
2023/07/19 07:46:04;;;;;;;17.42;7.22;;;;;;;;;;4969258;28;20042;-60
2023/07/19 07:48:30;;;;;;;17.90;6.88;;;;;;;;;;4967514;28;20038;-60
2023/07/19 07:50:56;;;;;;;18.00;7.18;;;;;;;;;;4966436;28;20080;-59
2023/07/19 07:53:22;;;;;;;12.32;7.03;;;;;;;;;;4967203;28;20046;-59
2023/07/19 07:55:49;;;;;;;20.67;6.93;;;;;;;;;;4969917;28;20038;-59
2023/07/19 07:58:16;;;;;;;17.77;7.35;;;;;;;;;;4967755;28;20038;-60
2023/07/19 08:00:43;;;;;;;14.93;7.05;;;;;;;;;;4967320;28;20030;-59
2023/07/19 08:03:09;;;;;;;16.52;7.30;;;;;;;;;;4968736;28;20753;-59
2023/07/19 08:05:37;;;;;;;33.65;7.72;;;;;;;;;;4968948;28;20050;-60
2023/07/19 08:08:05;;;;;;;16.27;6.43;;;;;;;;;;4968530;28;20043;-60
2023/07/19 08:10:39;;;;;;;14.48;6.72;;;;;;;;;;4970020;28;20123;-60
2023/07/19 08:13:06;;;;;;;18.35;7.50;;;;;;;;;;4968314;28;20047;-60
2023/07/19 08:15:32;;;;;;;13.63;7.18;;;;;;;;;;4967769;28;20030;-60
2023/07/19 08:17:58;;;;;;;13.60;6.43;;;;;;;;;;4969529;28;20379;-60
2023/07/19 08:20:25;;;;;;;20.83;7.05;;;;;;;;;;4971152;28;20061;-60
2023/07/19 08:22:52;;;;;;;15.15;6.57;;;;;;;;;;4972929;28;20041;-60
2023/07/19 08:25:19;;;;;;;17.85;6.97;;;;;;;;;;4972089;28;20054;-59
2023/07/19 08:27:45;;;;;;;17.17;6.90;;;;;;;;;;4971304;28;20422;-59
2023/07/19 08:30:15;;;;;;;15.13;6.80;;;;;;;;;;4971150;28;20042;-59
2023/07/19 08:32:45;;;;;;;17.98;6.95;;;;;;;;;;4973280;28;20137;-61
2023/07/19 08:35:14;;;;;;;14.80;6.22;;;;;;;;;;4970026;28;20031;-61
2023/07/19 08:37:43;;;;;;;18.77;6.20;;;;;;;;;;4972167;28;20058;-60
2023/07/19 08:40:12;;;;;;;13.05;5.95;;;;;;;;;;4970826;28;20046;-59
2023/07/19 08:42:38;;;;;;;12.85;6.45;;;;;;;;;;4970973;28;20038;-60
2023/07/19 08:45:09;;;;;;;14.00;6.47;;;;;;;;;;4967290;28;20082;-59
2023/07/19 08:47:37;;;;;;;11.98;5.65;;;;;;;;;;4972981;28;20039;-60
2023/07/19 08:50:04;;;;;;;12.18;5.13;;;;;;;;;;4971551;28;20399;-60
2023/07/19 08:52:32;;;;;;;11.57;5.32;;;;;;;;;;4973546;28;20038;-62
2023/07/19 08:54:59;;;;;;;10.65;5.32;;;;;;;;;;4974802;28;20034;-60
2023/07/19 08:57:27;;;;;;;9.77;5.53;;;;;;;;;;4968633;28;20042;-60
2023/07/19 08:59:53;;;;;;;15.50;6.18;;;;;;;;;;4971725;28;20050;-60
2023/07/19 09:02:19;;;;;;;16.15;7.45;;;;;;;;;;4967828;28;20039;-60
2023/07/19 09:05:08;;;;;;;12.20;5.15;;;;;;;;;;4973163;28;20503;-60
2023/07/19 09:07:36;;;;;;;9.80;4.60;;;;;;;;;;4969957;28;20395;-60
2023/07/19 09:10:03;;;;;;;12.63;4.43;;;;;;;;;;4968603;28;20030;-60
2023/07/19 09:12:36;;;;;;;14.95;4.63;;;;;;;;;;4969462;28;20038;-60
2023/07/19 09:15:07;;;;;;;8.65;4.50;;;;;;;;;;4969604;28;20038;-60
2023/07/19 09:17:46;;;;;;;12.20;4.40;;;;;;;;;;4969838;28;20054;-60
2023/07/19 09:20:14;;;;;;;11.23;4.35;;;;;;;;;;4968650;28;20055;-60
2023/07/19 09:22:41;;;;;;;8.50;3.25;;;;;;;;;;4969058;28;20069;-60
2023/07/19 09:25:09;;;;;;;8.77;3.45;;;;;;;;;;4970326;28;20043;-60
2023/07/19 09:27:36;;;;;;;7.82;3.92;;;;;;;;;;4970787;28;20051;-60
2023/07/19 09:30:08;;;;;;;6.70;3.50;;;;;;;;;;4973876;28;20043;-59
2023/07/19 09:32:34;;;;;;;8.77;3.33;;;;;;;;;;4968652;28;20041;-60
2023/07/19 09:35:03;;;;;;;9.98;3.35;;;;;;;;;;4970295;28;20058;-60
2023/07/19 09:37:30;;;;;;;7.57;3.35;;;;;;;;;;4951983;28;20038;-60
2023/07/19 09:39:58;;;;;;;8.38;3.65;;;;;;;;;;4971870;28;20042;-59
2023/07/19 09:42:25;;;;;;;10.77;3.08;;;;;;;;;;4966097;28;20042;-60
2023/07/19 09:44:53;;;;;;;7.85;3.20;;;;;;;;;;4970112;28;20034;-60
2023/07/19 09:47:19;;;;;;;10.70;3.17;;;;;;;;;;4968535;28;20054;-60
2023/07/19 09:49:45;;;;;;;13.50;3.63;;;;;;;;;;4967555;28;20031;-60
2023/07/19 09:52:18;;;;;;;8.20;3.13;;;;;;;;;;4969805;28;20387;-61
2023/07/19 09:54:45;;;;;;;8.20;2.97;;;;;;;;;;4985608;28;20038;-61
2023/07/19 09:57:11;;;;;;;10.75;2.90;;;;;;;;;;4970569;28;20042;-60
2023/07/19 09:59:43;;;;;;;6.55;2.95;;;;;;;;;;4970120;28;20058;-60
2023/07/19 10:02:10;;;;;;;15.60;3.55;;;;;;;;;;4969549;28;20522;-60
2023/07/19 10:04:38;;;;;;;7.32;3.38;;;;;;;;;;4969235;28;20031;-60
2023/07/19 10:07:08;;;;;;;8.13;4.05;;;;;;;;;;4969919;28;20749;-60
2023/07/19 10:09:38;;;;;;;8.45;3.10;;;;;;;;;;4973110;28;20536;-60
2023/07/19 10:12:29;;;;;;;6.75;2.88;;;;;;;;;;4968893;28;20038;-60
2023/07/19 10:14:56;;;;;;;8.93;2.70;;;;;;;;;;4971977;28;20042;-60
2023/07/19 10:17:23;;;;;;;11.65;2.60;;;;;;;;;;4975090;28;20042;-59
2023/07/19 10:20:04;;;;;;;10.68;3.25;;;;;;;;;;4971724;28;20053;-61
2023/07/19 10:22:50;;;;;;;6.97;2.70;;;;;;;;;;4971257;28;20035;-61
2023/07/19 10:25:40;;;;;;;7.80;3.53;;;;;;;;;;4961699;28;20053;-61
2023/07/19 10:28:11;;;;;;;8.23;3.30;;;;;;;;;;4963713;28;20046;-61
2023/07/19 10:30:43;;;;;;;8.48;3.58;;;;;;;;;;4967818;28;20043;-60
2023/07/19 10:33:17;;;;;;;10.68;4.05;;;;;;;;;;4967545;28;20069;-60
2023/07/19 10:35:43;;;;;;;6.97;4.03;;;;;;;;;;4968512;28;20050;-60
2023/07/19 10:38:16;;;;;;;4.97;3.65;;;;;;;;;;4970181;28;20043;-60
2023/07/19 10:40:46;;;;;;;9.45;4.10;;;;;;;;;;4971256;28;20046;-60
2023/07/19 10:43:13;;;;;;;10.32;5.20;;;;;;;;;;4969006;28;20055;-59
2023/07/19 10:45:40;;;;;;;8.23;4.28;;;;;;;;;;4974082;28;20058;-60
2023/07/19 10:48:07;;;;;;;6.13;3.88;;;;;;;;;;4967378;28;20038;-59
2023/07/19 10:50:33;;;;;;;8.50;3.83;;;;;;;;;;4967730;28;21042;-59
2023/07/19 10:52:59;;;;;;;7.93;4.15;;;;;;;;;;4967978;28;20035;-59
2023/07/19 10:55:28;;;;;;;10.32;3.88;;;;;;;;;;4967938;28;20058;-60
2023/07/19 10:57:54;;;;;;;5.68;3.40;;;;;;;;;;4969815;28;20050;-60
2023/07/19 11:00:20;;;;;;;10.63;3.67;;;;;;;;;;4968187;28;20261;-60
2023/07/19 11:02:47;;;;;;;11.10;3.88;;;;;;;;;;4969561;28;20046;-62
2023/07/19 11:05:13;;;;;;;8.57;3.42;;;;;;;;;;4967714;28;20061;-61
2023/07/19 11:07:39;;;;;;;10.80;4.15;;;;;;;;;;4968981;28;20048;-61
2023/07/19 11:10:06;;;;;;;10.85;4.15;;;;;;;;;;4969501;28;20042;-61
2023/07/19 11:12:33;;;;;;;10.27;3.85;;;;;;;;;;4959016;28;20526;-62
2023/07/19 11:15:01;;;;;;;14.52;5.32;;;;;;;;;;4969405;28;20039;-61
2023/07/19 11:17:30;;;;;;;13.48;3.97;;;;;;;;;;4965553;28;20034;-61
2023/07/19 11:19:58;;;;;;;10.10;3.72;;;;;;;;;;4967653;28;20051;-61
2023/07/19 11:22:26;;;;;;;6.65;3.90;;;;;;;;;;4964607;28;20045;-62
2023/07/19 11:24:54;;;;;;;6.75;3.75;;;;;;;;;;4969707;28;20042;-61
2023/07/19 11:27:36;;;;;;;9.45;3.90;;;;;;;;;;4967837;28;20042;-62
2023/07/19 11:30:03;;;;;;;16.73;4.90;;;;;;;;;;4970859;28;20034;-60
2023/07/19 11:32:29;;;;;;;6.95;4.38;;;;;;;;;;4965173;28;20026;-60
2023/07/19 11:34:57;;;;;;;8.70;4.30;;;;;;;;;;4968729;28;20039;-60
2023/07/19 11:37:27;;;;;;;9.40;4.50;;;;;;;;;;4968142;28;20047;-60
2023/07/19 11:39:58;;;;;;;6.65;3.97;;;;;;;;;;4970966;28;20049;-61
2023/07/19 11:42:47;;;;;;;8.77;4.10;;;;;;;;;;4965535;28;20041;-60
2023/07/19 11:45:19;;;;;;;10.82;4.30;;;;;;;;;;4964859;28;20034;-61
2023/07/19 11:47:48;;;;;;;8.70;4.07;;;;;;;;;;4969690;28;20046;-61
2023/07/19 11:50:15;;;;;;;8.98;4.35;;;;;;;;;;4968369;28;20069;-60
2023/07/19 11:52:47;;;;;;;9.13;4.53;;;;;;;;;;4967782;28;20043;-62
2023/07/19 11:55:15;;;;;;;8.85;4.75;;;;;;;;;;4967316;28;20050;-61
2023/07/19 11:57:43;;;;;;;8.30;4.75;;;;;;;;;;4968846;28;20047;-63
2023/07/19 12:00:10;;;;;;;11.60;5.07;;;;;;;;;;4967882;28;20062;-61
2023/07/19 12:02:37;;;;;;;9.63;4.75;;;;;;;;;;4964484;28;20054;-62
2023/07/19 12:05:06;;;;;;;9.77;4.88;;;;;;;;;;4965577;28;20502;-60
2023/07/19 12:07:33;;;;;;;12.60;4.90;;;;;;;;;;4965552;28;20070;-60
2023/07/19 12:10:03;;;;;;;8.35;4.68;;;;;;;;;;4968466;28;20034;-61
2023/07/19 12:12:30;;;;;;;8.77;4.45;;;;;;;;;;4967593;28;20042;-62
2023/07/19 12:15:00;;;;;;;10.93;5.00;;;;;;;;;;4970013;28;20370;-60
2023/07/19 12:17:26;;;;;;;8.73;4.40;;;;;;;;;;4965969;28;20437;-60
2023/07/19 12:19:53;;;;;;;9.45;4.90;;;;;;;;;;4969485;28;20046;-61
2023/07/19 12:22:20;;;;;;;9.93;4.45;;;;;;;;;;4966375;28;20426;-61
2023/07/19 12:24:47;;;;;;;13.10;4.40;;;;;;;;;;4966985;28;20034;-61
2023/07/19 12:27:16;;;;;;;11.75;4.40;;;;;;;;;;4966597;28;20031;-60
2023/07/19 12:29:42;;;;;;;12.77;4.60;;;;;;;;;;4969367;28;20039;-62
2023/07/19 12:32:08;;;;;;;9.60;4.40;;;;;;;;;;4969965;28;20678;-62
2023/07/19 12:34:34;;;;;;;7.38;4.88;;;;;;;;;;4966464;28;20070;-61
2023/07/19 12:37:00;;;;;;;12.98;5.03;;;;;;;;;;4968702;28;20055;-60
2023/07/19 12:39:26;;;;;;;6.25;4.05;;;;;;;;;;4967032;28;20061;-60
2023/07/19 12:41:52;;;;;;;9.27;4.95;;;;;;;;;;4966522;28;20042;-61
2023/07/19 12:44:20;;;;;;;8.75;4.75;;;;;;;;;;4968463;28;20057;-61
2023/07/19 12:46:50;;;;;;;14.18;7.03;;;;;;;;;;4966078;28;20042;-62
2023/07/19 12:49:19;;;;;;;17.85;8.05;;;;;;;;;;4967999;28;20398;-61
2023/07/19 12:51:46;;;;;;;9.95;4.80;;;;;;;;;;4962231;28;20498;-62
2023/07/19 12:54:12;;;;;;;7.38;4.68;;;;;;;;;;4969344;28;20031;-62
2023/07/19 12:56:39;;;;;;;11.35;4.88;;;;;;;;;;4968235;28;20039;-62
2023/07/19 12:59:06;;;;;;;8.35;5.13;;;;;;;;;;4968110;28;20046;-61
2023/07/19 13:01:34;;;;;;;7.95;5.15;;;;;;;;;;4966325;28;22522;-62
2023/07/19 13:04:02;;;;;;;6.28;5.07;;;;;;;;;;4967096;28;20050;-61
2023/07/19 13:06:28;;;;;;;6.43;4.43;;;;;;;;;;4968546;28;20050;-62
2023/07/19 13:08:56;;;;;;;8.52;4.75;;;;;;;;;;4972621;28;20529;-62
2023/07/19 13:11:23;;;;;;;7.13;4.60;;;;;;;;;;4969542;28;20518;-63
2023/07/19 13:13:50;;;;;;;6.63;4.75;;;;;;;;;;4970169;28;20684;-62
2023/07/19 13:16:17;;;;;;;6.15;4.22;;;;;;;;;;4968005;28;20039;-63
2023/07/19 13:18:44;;;;;;;10.23;4.72;;;;;;;;;;4970374;28;20054;-62
2023/07/19 13:21:12;;;;;;;8.60;4.65;;;;;;;;;;4971330;28;20474;-63
2023/07/19 13:23:38;;;;;;;10.05;5.13;;;;;;;;;;4969472;28;20055;-62
2023/07/19 13:26:04;;;;;;;11.32;4.78;;;;;;;;;;4973694;28;20035;-61
2023/07/19 13:28:31;;;;;;;10.32;4.90;;;;;;;;;;4969926;28;20057;-62
2023/07/19 13:30:57;;;;;;;9.13;4.97;;;;;;;;;;4973853;28;20042;-63
2023/07/19 13:33:25;;;;;;;7.15;4.35;;;;;;;;;;4972792;28;20434;-63
2023/07/19 13:35:51;;;;;;;6.63;4.30;;;;;;;;;;4972811;28;20521;-62
2023/07/19 13:38:18;;;;;;;9.13;4.40;;;;;;;;;;4970030;28;20505;-61
2023/07/19 13:40:47;;;;;;;9.38;5.03;;;;;;;;;;4971351;28;20066;-63
2023/07/19 13:43:13;;;;;;;10.20;5.18;;;;;;;;;;4968564;28;20039;-62
2023/07/19 13:45:40;;;;;;;9.93;4.88;;;;;;;;;;4970454;28;20038;-62
2023/07/19 13:48:07;;;;;;;8.80;4.82;;;;;;;;;;4971849;28;20041;-61
2023/07/19 13:50:34;;;;;;;6.88;4.45;;;;;;;;;;4968821;28;20049;-61
2023/07/19 13:53:00;;;;;;;7.25;4.40;;;;;;;;;;4971443;28;20058;-62
2023/07/19 13:55:26;;;;;;;9.52;4.65;;;;;;;;;;4968347;28;20053;-62
2023/07/19 13:57:52;;;;;;;7.35;4.32;;;;;;;;;;4973040;28;20625;-63
2023/07/19 14:00:19;;;;;;;5.80;3.90;;;;;;;;;;4969703;28;20659;-63
2023/07/19 14:02:45;;;;;;;8.07;4.35;;;;;;;;;;4966597;28;20051;-63
2023/07/19 14:05:15;;;;;;;6.75;3.90;;;;;;;;;;4970095;28;20050;-62
2023/07/19 14:07:41;;;;;;;8.95;3.95;;;;;;;;;;4974281;28;20548;-63
2023/07/19 14:10:08;;;;;;;7.00;3.90;;;;;;;;;;4967518;28;20063;-62
2023/07/19 14:12:39;;;;;;;8.15;3.95;;;;;;;;;;4968262;28;20043;-63
2023/07/19 14:15:07;;;;;;;6.35;3.60;;;;;;;;;;4970359;28;20525;-63
2023/07/19 14:17:34;;;;;;;10.02;3.80;;;;;;;;;;4973030;28;20072;-63
2023/07/19 14:20:00;;;;;;;5.45;3.42;;;;;;;;;;4969954;28;20050;-62
2023/07/19 14:22:26;;;;;;;6.15;3.83;;;;;;;;;;4966718;28;20057;-62
2023/07/19 14:24:53;;;;;;;6.78;3.90;;;;;;;;;;4969476;28;20062;-63
2023/07/19 14:27:19;;;;;;;6.60;3.70;;;;;;;;;;4969642;28;20042;-63
2023/07/19 14:29:45;;;;;;;8.35;3.63;;;;;;;;;;4969592;28;20039;-63
2023/07/19 14:32:11;;;;;;;7.03;4.10;;;;;;;;;;4970036;28;20043;-64
2023/07/19 14:34:38;;;;;;;11.13;4.28;;;;;;;;;;4968469;28;20066;-63